Terminal Aerodrome Forecast
Issued by NWS Charleston, WV

Current Version | Previous Version | Text Only | Print | Product List | Glossary Off
Versions: 1 2 3 4 5 6 7 8 9 10 11 12 13 14 15 16 17 18 19 20 21 22 23 24 25 26 27 28

000
FTUS41 KRLX 181700
TAFCRW
TAF
KCRW 181734Z 1818/1918 20004KT 1SM -RA BR BKN005 BKN015
      TEMPO 1819/1822 3SM SCT005
     FM182200 23003KT 4SM BR BKN009 BKN018
     FM190000 22004KT 6SM BR SCT019 BKN025
     FM190200 23003KT 4SM BR BKN020
     FM190500 00000KT 1SM BR BKN002
     FM191500 21003KT 5SM BR BKN035=

USA.gov is the U.S. government's official web portal to all federal, state and local government web resources and services.